sensor_id;sensor_type;location;lat;lon;timestamp;P1;durP1;ratioP1;P2;durP2;ratioP2
55718;SDS011;41623;46.104;19.656;2022-11-20T00:01:53;4.72;;;2.75;;
55718;SDS011;41623;46.104;19.656;2022-11-20T00:04:20;9.45;;;5.18;;
55718;SDS011;41623;46.104;19.656;2022-11-20T00:06:46;12.77;;;3.25;;
55718;SDS011;41623;46.104;19.656;2022-11-20T00:09:12;7.70;;;3.53;;
55718;SDS011;41623;46.104;19.656;2022-11-20T00:11:38;5.55;;;2.63;;
55718;SDS011;41623;46.104;19.656;2022-11-20T00:14:04;6.10;;;3.58;;
55718;SDS011;41623;46.104;19.656;2022-11-20T00:16:31;4.80;;;2.85;;
55718;SDS011;41623;46.104;19.656;2022-11-20T00:18:57;9.02;;;3.63;;
55718;SDS011;41623;46.104;19.656;2022-11-20T00:21:24;9.18;;;4.13;;
55718;SDS011;41623;46.104;19.656;2022-11-20T00:23:52;7.53;;;4.47;;
55718;SDS011;41623;46.104;19.656;2022-11-20T00:26:19;10.40;;;4.03;;
55718;SDS011;41623;46.104;19.656;2022-11-20T00:28:52;9.70;;;4.22;;
55718;SDS011;41623;46.104;19.656;2022-11-20T00:31:18;6.22;;;3.00;;
55718;SDS011;41623;46.104;19.656;2022-11-20T00:33:45;7.95;;;3.72;;
55718;SDS011;41623;46.104;19.656;2022-11-20T00:36:12;6.65;;;3.72;;
55718;SDS011;41623;46.104;19.656;2022-11-20T00:38:38;6.55;;;3.45;;
55718;SDS011;41623;46.104;19.656;2022-11-20T00:41:05;9.77;;;3.67;;
55718;SDS011;41623;46.104;19.656;2022-11-20T00:43:32;13.38;;;3.53;;
55718;SDS011;41623;46.104;19.656;2022-11-20T00:45:58;5.22;;;2.47;;
55718;SDS011;41623;46.104;19.656;2022-11-20T00:48:25;9.35;;;3.50;;
55718;SDS011;41623;46.104;19.656;2022-11-20T00:50:51;7.15;;;3.10;;
55718;SDS011;41623;46.104;19.656;2022-11-20T00:53:17;7.72;;;5.05;;
55718;SDS011;41623;46.104;19.656;2022-11-20T00:55:51;8.05;;;4.00;;
55718;SDS011;41623;46.104;19.656;2022-11-20T00:58:17;5.35;;;2.85;;
55718;SDS011;41623;46.104;19.656;2022-11-20T01:00:43;8.77;;;3.58;;
55718;SDS011;41623;46.104;19.656;2022-11-20T01:03:09;5.45;;;3.03;;
55718;SDS011;41623;46.104;19.656;2022-11-20T01:05:35;7.00;;;2.67;;
55718;SDS011;41623;46.104;19.656;2022-11-20T01:08:01;5.18;;;2.58;;
55718;SDS011;41623;46.104;19.656;2022-11-20T01:10:28;6.65;;;3.67;;
55718;SDS011;41623;46.104;19.656;2022-11-20T01:12:54;6.60;;;3.55;;
55718;SDS011;41623;46.104;19.656;2022-11-20T01:15:39;10.80;;;3.88;;
55718;SDS011;41623;46.104;19.656;2022-11-20T01:18:05;7.95;;;3.15;;
55718;SDS011;41623;46.104;19.656;2022-11-20T01:20:35;9.27;;;4.63;;
55718;SDS011;41623;46.104;19.656;2022-11-20T01:23:02;7.03;;;3.55;;
55718;SDS011;41623;46.104;19.656;2022-11-20T01:25:28;5.15;;;2.22;;
55718;SDS011;41623;46.104;19.656;2022-11-20T01:27:54;10.40;;;4.38;;
55718;SDS011;41623;46.104;19.656;2022-11-20T01:30:20;7.20;;;2.85;;
55718;SDS011;41623;46.104;19.656;2022-11-20T01:32:46;3.58;;;2.20;;
55718;SDS011;41623;46.104;19.656;2022-11-20T01:35:12;6.95;;;3.72;;
55718;SDS011;41623;46.104;19.656;2022-11-20T01:37:38;5.78;;;3.22;;
55718;SDS011;41623;46.104;19.656;2022-11-20T01:40:04;5.93;;;3.45;;
55718;SDS011;41623;46.104;19.656;2022-11-20T01:42:31;4.70;;;3.08;;
55718;SDS011;41623;46.104;19.656;2022-11-20T01:48:00;7.85;;;3.13;;
55718;SDS011;41623;46.104;19.656;2022-11-20T01:50:27;6.97;;;4.00;;
55718;SDS011;41623;46.104;19.656;2022-11-20T01:53:13;10.07;;;3.80;;
55718;SDS011;41623;46.104;19.656;2022-11-20T01:55:45;5.35;;;3.20;;
55718;SDS011;41623;46.104;19.656;2022-11-20T01:58:14;8.82;;;4.70;;
55718;SDS011;41623;46.104;19.656;2022-11-20T02:00:40;7.13;;;3.13;;
55718;SDS011;41623;46.104;19.656;2022-11-20T02:03:10;5.95;;;3.10;;
55718;SDS011;41623;46.104;19.656;2022-11-20T02:05:41;10.15;;;3.97;;
55718;SDS011;41623;46.104;19.656;2022-11-20T02:08:07;12.30;;;3.95;;
55718;SDS011;41623;46.104;19.656;2022-11-20T02:10:34;5.32;;;3.28;;
55718;SDS011;41623;46.104;19.656;2022-11-20T02:13:00;6.85;;;3.00;;
55718;SDS011;41623;46.104;19.656;2022-11-20T02:15:44;8.65;;;3.97;;
55718;SDS011;41623;46.104;19.656;2022-11-20T02:18:11;9.20;;;3.97;;
55718;SDS011;41623;46.104;19.656;2022-11-20T02:20:40;4.63;;;2.97;;
55718;SDS011;41623;46.104;19.656;2022-11-20T02:25:35;7.78;;;3.78;;
55718;SDS011;41623;46.104;19.656;2022-11-20T02:28:02;3.70;;;2.58;;
55718;SDS011;41623;46.104;19.656;2022-11-20T02:30:28;10.32;;;4.20;;
55718;SDS011;41623;46.104;19.656;2022-11-20T02:32:54;3.67;;;2.42;;
55718;SDS011;41623;46.104;19.656;2022-11-20T02:37:47;5.30;;;2.55;;
55718;SDS011;41623;46.104;19.656;2022-11-20T02:40:14;6.57;;;2.92;;
55718;SDS011;41623;46.104;19.656;2022-11-20T02:42:40;9.05;;;3.33;;
55718;SDS011;41623;46.104;19.656;2022-11-20T02:45:06;9.27;;;4.47;;
55718;SDS011;41623;46.104;19.656;2022-11-20T02:47:33;7.30;;;3.90;;
55718;SDS011;41623;46.104;19.656;2022-11-20T02:49:59;7.00;;;3.80;;
55718;SDS011;41623;46.104;19.656;2022-11-20T02:52:25;7.60;;;3.63;;
55718;SDS011;41623;46.104;19.656;2022-11-20T02:54:51;5.55;;;3.40;;
55718;SDS011;41623;46.104;19.656;2022-11-20T02:57:17;9.63;;;2.90;;
55718;SDS011;41623;46.104;19.656;2022-11-20T02:59:43;5.25;;;2.70;;
55718;SDS011;41623;46.104;19.656;2022-11-20T03:02:09;8.80;;;3.45;;
55718;SDS011;41623;46.104;19.656;2022-11-20T03:04:36;4.68;;;2.65;;
55718;SDS011;41623;46.104;19.656;2022-11-20T03:07:02;4.97;;;3.25;;
55718;SDS011;41623;46.104;19.656;2022-11-20T03:09:28;7.80;;;3.45;;
55718;SDS011;41623;46.104;19.656;2022-11-20T03:11:54;8.98;;;3.90;;
55718;SDS011;41623;46.104;19.656;2022-11-20T03:14:20;5.63;;;2.88;;
55718;SDS011;41623;46.104;19.656;2022-11-20T03:16:46;6.25;;;4.03;;
55718;SDS011;41623;46.104;19.656;2022-11-20T03:19:12;7.07;;;3.15;;
55718;SDS011;41623;46.104;19.656;2022-11-20T03:21:39;5.65;;;3.47;;
55718;SDS011;41623;46.104;19.656;2022-11-20T03:24:05;6.55;;;2.90;;
55718;SDS011;41623;46.104;19.656;2022-11-20T03:26:31;4.97;;;3.03;;
55718;SDS011;41623;46.104;19.656;2022-11-20T03:28:58;8.73;;;4.18;;
55718;SDS011;41623;46.104;19.656;2022-11-20T03:31:28;8.98;;;4.18;;
55718;SDS011;41623;46.104;19.656;2022-11-20T03:33:56;14.13;;;4.20;;
55718;SDS011;41623;46.104;19.656;2022-11-20T03:36:22;6.40;;;3.20;;
55718;SDS011;41623;46.104;19.656;2022-11-20T03:38:48;10.25;;;3.60;;
55718;SDS011;41623;46.104;19.656;2022-11-20T03:41:18;6.63;;;3.13;;
55718;SDS011;41623;46.104;19.656;2022-11-20T03:43:52;10.65;;;4.53;;
55718;SDS011;41623;46.104;19.656;2022-11-20T03:46:18;8.13;;;4.13;;
55718;SDS011;41623;46.104;19.656;2022-11-20T03:48:44;8.68;;;3.53;;
55718;SDS011;41623;46.104;19.656;2022-11-20T03:51:12;8.48;;;4.10;;
55718;SDS011;41623;46.104;19.656;2022-11-20T03:53:39;7.82;;;2.85;;
55718;SDS011;41623;46.104;19.656;2022-11-20T03:56:05;8.30;;;3.50;;
55718;SDS011;41623;46.104;19.656;2022-11-20T03:58:32;9.18;;;3.90;;
55718;SDS011;41623;46.104;19.656;2022-11-20T04:01:04;3.65;;;2.38;;
55718;SDS011;41623;46.104;19.656;2022-11-20T04:03:30;6.78;;;4.03;;
55718;SDS011;41623;46.104;19.656;2022-11-20T04:06:01;4.88;;;3.22;;
55718;SDS011;41623;46.104;19.656;2022-11-20T04:08:28;5.70;;;3.00;;
55718;SDS011;41623;46.104;19.656;2022-11-20T04:10:54;10.57;;;3.80;;
55718;SDS011;41623;46.104;19.656;2022-11-20T04:13:20;5.30;;;2.85;;
55718;SDS011;41623;46.104;19.656;2022-11-20T04:15:46;10.82;;;3.45;;
55718;SDS011;41623;46.104;19.656;2022-11-20T04:18:12;10.75;;;3.47;;
55718;SDS011;41623;46.104;19.656;2022-11-20T04:20:38;6.20;;;3.33;;
55718;SDS011;41623;46.104;19.656;2022-11-20T04:23:04;5.45;;;2.63;;
55718;SDS011;41623;46.104;19.656;2022-11-20T04:25:30;6.10;;;3.20;;
55718;SDS011;41623;46.104;19.656;2022-11-20T04:27:56;4.95;;;2.97;;
55718;SDS011;41623;46.104;19.656;2022-11-20T04:30:22;10.02;;;3.60;;
55718;SDS011;41623;46.104;19.656;2022-11-20T04:32:48;9.38;;;4.25;;
55718;SDS011;41623;46.104;19.656;2022-11-20T04:35:14;5.78;;;2.58;;
55718;SDS011;41623;46.104;19.656;2022-11-20T04:37:40;8.13;;;3.70;;
55718;SDS011;41623;46.104;19.656;2022-11-20T04:40:06;7.03;;;3.38;;
55718;SDS011;41623;46.104;19.656;2022-11-20T04:42:32;7.00;;;3.13;;
55718;SDS011;41623;46.104;19.656;2022-11-20T04:44:58;9.15;;;4.10;;
55718;SDS011;41623;46.104;19.656;2022-11-20T04:47:25;6.53;;;3.80;;
55718;SDS011;41623;46.104;19.656;2022-11-20T04:49:51;9.68;;;3.67;;
55718;SDS011;41623;46.104;19.656;2022-11-20T04:52:17;8.20;;;4.30;;
55718;SDS011;41623;46.104;19.656;2022-11-20T04:54:43;8.93;;;3.70;;
55718;SDS011;41623;46.104;19.656;2022-11-20T04:57:09;10.40;;;4.32;;
55718;SDS011;41623;46.104;19.656;2022-11-20T04:59:35;5.05;;;3.55;;
55718;SDS011;41623;46.104;19.656;2022-11-20T05:02:01;10.30;;;4.38;;
55718;SDS011;41623;46.104;19.656;2022-11-20T05:04:27;9.18;;;4.00;;
55718;SDS011;41623;46.104;19.656;2022-11-20T05:06:53;11.13;;;4.47;;
55718;SDS011;41623;46.104;19.656;2022-11-20T05:09:19;5.93;;;3.83;;
55718;SDS011;41623;46.104;19.656;2022-11-20T05:11:45;7.47;;;4.20;;
55718;SDS011;41623;46.104;19.656;2022-11-20T05:14:11;10.77;;;4.18;;
55718;SDS011;41623;46.104;19.656;2022-11-20T05:16:37;8.35;;;4.47;;
55718;SDS011;41623;46.104;19.656;2022-11-20T05:19:03;12.02;;;4.00;;
55718;SDS011;41623;46.104;19.656;2022-11-20T05:21:30;11.63;;;4.40;;
55718;SDS011;41623;46.104;19.656;2022-11-20T05:23:57;9.73;;;3.67;;
55718;SDS011;41623;46.104;19.656;2022-11-20T05:26:23;10.43;;;3.75;;
55718;SDS011;41623;46.104;19.656;2022-11-20T05:28:49;6.00;;;2.78;;
55718;SDS011;41623;46.104;19.656;2022-11-20T05:31:17;4.90;;;3.22;;
55718;SDS011;41623;46.104;19.656;2022-11-20T05:33:44;7.05;;;3.63;;
55718;SDS011;41623;46.104;19.656;2022-11-20T05:36:11;8.25;;;2.75;;
55718;SDS011;41623;46.104;19.656;2022-11-20T05:38:37;6.95;;;4.07;;
55718;SDS011;41623;46.104;19.656;2022-11-20T05:41:07;7.40;;;2.97;;
55718;SDS011;41623;46.104;19.656;2022-11-20T05:43:34;3.25;;;2.25;;
55718;SDS011;41623;46.104;19.656;2022-11-20T05:46:00;6.50;;;3.75;;
55718;SDS011;41623;46.104;19.656;2022-11-20T05:48:26;6.53;;;2.85;;
55718;SDS011;41623;46.104;19.656;2022-11-20T05:50:52;11.57;;;4.05;;
55718;SDS011;41623;46.104;19.656;2022-11-20T05:53:18;6.82;;;3.38;;
55718;SDS011;41623;46.104;19.656;2022-11-20T05:55:44;6.95;;;3.17;;
55718;SDS011;41623;46.104;19.656;2022-11-20T05:58:10;7.22;;;3.17;;
55718;SDS011;41623;46.104;19.656;2022-11-20T06:00:36;5.97;;;2.63;;
55718;SDS011;41623;46.104;19.656;2022-11-20T06:03:02;8.30;;;3.78;;
55718;SDS011;41623;46.104;19.656;2022-11-20T06:05:29;8.60;;;4.68;;
55718;SDS011;41623;46.104;19.656;2022-11-20T06:07:55;6.50;;;4.00;;
55718;SDS011;41623;46.104;19.656;2022-11-20T06:10:21;10.93;;;4.40;;
55718;SDS011;41623;46.104;19.656;2022-11-20T06:12:47;5.80;;;3.55;;
55718;SDS011;41623;46.104;19.656;2022-11-20T06:15:13;5.68;;;2.97;;
55718;SDS011;41623;46.104;19.656;2022-11-20T06:17:39;8.43;;;3.33;;
55718;SDS011;41623;46.104;19.656;2022-11-20T06:20:05;7.22;;;4.35;;
55718;SDS011;41623;46.104;19.656;2022-11-20T06:22:32;7.85;;;2.55;;
55718;SDS011;41623;46.104;19.656;2022-11-20T06:24:58;6.07;;;3.00;;
55718;SDS011;41623;46.104;19.656;2022-11-20T06:27:24;9.35;;;3.30;;
55718;SDS011;41623;46.104;19.656;2022-11-20T06:29:50;6.72;;;3.22;;
55718;SDS011;41623;46.104;19.656;2022-11-20T06:32:16;4.53;;;2.92;;
55718;SDS011;41623;46.104;19.656;2022-11-20T06:34:42;3.40;;;2.17;;
55718;SDS011;41623;46.104;19.656;2022-11-20T06:37:08;10.50;;;4.72;;
55718;SDS011;41623;46.104;19.656;2022-11-20T06:39:34;6.00;;;2.85;;
55718;SDS011;41623;46.104;19.656;2022-11-20T06:42:00;8.15;;;3.42;;
55718;SDS011;41623;46.104;19.656;2022-11-20T06:44:27;7.53;;;3.95;;
55718;SDS011;41623;46.104;19.656;2022-11-20T06:46:53;7.13;;;2.60;;
55718;SDS011;41623;46.104;19.656;2022-11-20T06:49:19;6.97;;;3.80;;
55718;SDS011;41623;46.104;19.656;2022-11-20T06:51:45;12.10;;;3.83;;
55718;SDS011;41623;46.104;19.656;2022-11-20T06:54:11;4.68;;;3.03;;
55718;SDS011;41623;46.104;19.656;2022-11-20T06:56:37;9.63;;;3.42;;
55718;SDS011;41623;46.104;19.656;2022-11-20T06:59:04;7.57;;;4.15;;
55718;SDS011;41623;46.104;19.656;2022-11-20T07:01:30;7.68;;;3.15;;
55718;SDS011;41623;46.104;19.656;2022-11-20T07:03:56;6.35;;;1.88;;
55718;SDS011;41623;46.104;19.656;2022-11-20T07:06:23;7.22;;;3.92;;
55718;SDS011;41623;46.104;19.656;2022-11-20T07:08:50;5.70;;;3.28;;
55718;SDS011;41623;46.104;19.656;2022-11-20T07:11:17;7.88;;;3.80;;
55718;SDS011;41623;46.104;19.656;2022-11-20T07:13:43;5.68;;;3.40;;
55718;SDS011;41623;46.104;19.656;2022-11-20T07:16:09;7.47;;;3.30;;
55718;SDS011;41623;46.104;19.656;2022-11-20T07:18:35;6.82;;;3.00;;
55718;SDS011;41623;46.104;19.656;2022-11-20T07:21:02;7.53;;;3.00;;
55718;SDS011;41623;46.104;19.656;2022-11-20T07:23:28;4.47;;;3.05;;
55718;SDS011;41623;46.104;19.656;2022-11-20T07:25:54;7.80;;;3.70;;
55718;SDS011;41623;46.104;19.656;2022-11-20T07:28:20;6.93;;;3.28;;
55718;SDS011;41623;46.104;19.656;2022-11-20T07:30:53;5.47;;;3.20;;
55718;SDS011;41623;46.104;19.656;2022-11-20T07:33:19;11.65;;;5.60;;
55718;SDS011;41623;46.104;19.656;2022-11-20T07:35:45;10.77;;;3.20;;
55718;SDS011;41623;46.104;19.656;2022-11-20T07:38:11;5.95;;;3.72;;
55718;SDS011;41623;46.104;19.656;2022-11-20T07:40:37;9.93;;;3.72;;
55718;SDS011;41623;46.104;19.656;2022-11-20T07:43:03;5.43;;;3.20;;
55718;SDS011;41623;46.104;19.656;2022-11-20T07:45:29;8.88;;;4.70;;
55718;SDS011;41623;46.104;19.656;2022-11-20T07:47:55;9.02;;;4.38;;
55718;SDS011;41623;46.104;19.656;2022-11-20T07:50:21;5.43;;;3.25;;
55718;SDS011;41623;46.104;19.656;2022-11-20T07:52:47;10.35;;;3.75;;
55718;SDS011;41623;46.104;19.656;2022-11-20T07:55:14;6.38;;;3.78;;
55718;SDS011;41623;46.104;19.656;2022-11-20T07:57:40;12.82;;;4.90;;
55718;SDS011;41623;46.104;19.656;2022-11-20T08:00:06;11.20;;;4.90;;
55718;SDS011;41623;46.104;19.656;2022-11-20T08:02:37;3.70;;;1.88;;
55718;SDS011;41623;46.104;19.656;2022-11-20T08:05:04;7.07;;;3.80;;
55718;SDS011;41623;46.104;19.656;2022-11-20T08:07:34;9.10;;;4.65;;
55718;SDS011;41623;46.104;19.656;2022-11-20T08:10:01;5.63;;;2.67;;
55718;SDS011;41623;46.104;19.656;2022-11-20T08:12:27;7.25;;;2.60;;
55718;SDS011;41623;46.104;19.656;2022-11-20T08:15:11;5.05;;;3.55;;
55718;SDS011;41623;46.104;19.656;2022-11-20T08:17:37;7.28;;;3.70;;
55718;SDS011;41623;46.104;19.656;2022-11-20T08:20:04;8.75;;;3.45;;
55718;SDS011;41623;46.104;19.656;2022-11-20T08:22:30;11.05;;;4.00;;
55718;SDS011;41623;46.104;19.656;2022-11-20T08:24:56;7.18;;;4.03;;
55718;SDS011;41623;46.104;19.656;2022-11-20T08:27:22;7.47;;;2.70;;
55718;SDS011;41623;46.104;19.656;2022-11-20T08:29:48;8.52;;;4.15;;
55718;SDS011;41623;46.104;19.656;2022-11-20T08:32:14;9.10;;;4.60;;
55718;SDS011;41623;46.104;19.656;2022-11-20T08:34:40;7.25;;;4.15;;
55718;SDS011;41623;46.104;19.656;2022-11-20T08:37:07;12.25;;;4.78;;
55718;SDS011;41623;46.104;19.656;2022-11-20T08:39:33;9.18;;;2.90;;
55718;SDS011;41623;46.104;19.656;2022-11-20T08:41:59;6.60;;;3.70;;
55718;SDS011;41623;46.104;19.656;2022-11-20T08:44:25;8.13;;;3.50;;
55718;SDS011;41623;46.104;19.656;2022-11-20T08:46:51;6.80;;;3.53;;
55718;SDS011;41623;46.104;19.656;2022-11-20T08:49:17;6.78;;;4.60;;
55718;SDS011;41623;46.104;19.656;2022-11-20T08:51:43;7.97;;;3.80;;
55718;SDS011;41623;46.104;19.656;2022-11-20T08:54:10;13.23;;;4.18;;
55718;SDS011;41623;46.104;19.656;2022-11-20T08:56:36;9.23;;;4.10;;
55718;SDS011;41623;46.104;19.656;2022-11-20T08:59:02;9.68;;;3.08;;
55718;SDS011;41623;46.104;19.656;2022-11-20T09:01:28;11.48;;;3.20;;
55718;SDS011;41623;46.104;19.656;2022-11-20T09:03:55;6.40;;;3.47;;
55718;SDS011;41623;46.104;19.656;2022-11-20T09:06:25;8.18;;;3.63;;
55718;SDS011;41623;46.104;19.656;2022-11-20T09:08:52;8.38;;;3.42;;
55718;SDS011;41623;46.104;19.656;2022-11-20T09:11:18;9.90;;;4.03;;
55718;SDS011;41623;46.104;19.656;2022-11-20T09:13:44;9.40;;;4.72;;
55718;SDS011;41623;46.104;19.656;2022-11-20T09:16:10;10.38;;;4.18;;
55718;SDS011;41623;46.104;19.656;2022-11-20T09:18:36;4.25;;;3.03;;
55718;SDS011;41623;46.104;19.656;2022-11-20T09:21:04;9.93;;;3.05;;
55718;SDS011;41623;46.104;19.656;2022-11-20T09:23:32;5.88;;;2.88;;
55718;SDS011;41623;46.104;19.656;2022-11-20T09:26:01;7.72;;;3.97;;
55718;SDS011;41623;46.104;19.656;2022-11-20T09:28:27;17.63;;;4.93;;
55718;SDS011;41623;46.104;19.656;2022-11-20T09:30:53;7.28;;;4.63;;
55718;SDS011;41623;46.104;19.656;2022-11-20T09:33:20;5.75;;;3.22;;
55718;SDS011;41623;46.104;19.656;2022-11-20T09:35:46;9.40;;;4.55;;
55718;SDS011;41623;46.104;19.656;2022-11-20T09:38:12;10.35;;;3.55;;
55718;SDS011;41623;46.104;19.656;2022-11-20T09:40:46;7.70;;;3.33;;
55718;SDS011;41623;46.104;19.656;2022-11-20T09:45:53;6.88;;;3.67;;
55718;SDS011;41623;46.104;19.656;2022-11-20T09:53:46;7.10;;;3.75;;
55718;SDS011;41623;46.104;19.656;2022-11-20T09:56:18;6.25;;;2.85;;
55718;SDS011;41623;46.104;19.656;2022-11-20T09:58:47;8.02;;;3.72;;
55718;SDS011;41623;46.104;19.656;2022-11-20T10:01:25;7.68;;;3.35;;
55718;SDS011;41623;46.104;19.656;2022-11-20T10:04:04;10.60;;;4.00;;
55718;SDS011;41623;46.104;19.656;2022-11-20T10:06:33;5.60;;;3.25;;
55718;SDS011;41623;46.104;19.656;2022-11-20T10:09:18;11.73;;;3.75;;
55718;SDS011;41623;46.104;19.656;2022-11-20T10:11:48;12.50;;;3.50;;
55718;SDS011;41623;46.104;19.656;2022-11-20T10:17:02;7.72;;;3.88;;
55718;SDS011;41623;46.104;19.656;2022-11-20T10:30:03;5.07;;;3.08;;
55718;SDS011;41623;46.104;19.656;2022-11-20T10:32:34;6.57;;;2.97;;
55718;SDS011;41623;46.104;19.656;2022-11-20T10:35:24;8.02;;;4.13;;
55718;SDS011;41623;46.104;19.656;2022-11-20T10:37:54;8.90;;;3.88;;
55718;SDS011;41623;46.104;19.656;2022-11-20T10:40:28;12.23;;;3.75;;
55718;SDS011;41623;46.104;19.656;2022-11-20T10:42:57;9.73;;;4.20;;
55718;SDS011;41623;46.104;19.656;2022-11-20T10:47:54;9.75;;;4.68;;
55718;SDS011;41623;46.104;19.656;2022-11-20T10:50:22;7.68;;;2.85;;
55718;SDS011;41623;46.104;19.656;2022-11-20T10:53:01;10.38;;;3.70;;
55718;SDS011;41623;46.104;19.656;2022-11-20T11:00:35;5.47;;;3.08;;
55718;SDS011;41623;46.104;19.656;2022-11-20T11:03:01;11.95;;;5.07;;
55718;SDS011;41623;46.104;19.656;2022-11-20T11:08:34;10.65;;;4.03;;
55718;SDS011;41623;46.104;19.656;2022-11-20T11:11:02;7.50;;;4.05;;
55718;SDS011;41623;46.104;19.656;2022-11-20T11:13:31;8.30;;;4.30;;
55718;SDS011;41623;46.104;19.656;2022-11-20T11:15:57;8.80;;;4.57;;
55718;SDS011;41623;46.104;19.656;2022-11-20T11:18:24;8.55;;;4.30;;
55718;SDS011;41623;46.104;19.656;2022-11-20T11:20:52;5.47;;;3.42;;
55718;SDS011;41623;46.104;19.656;2022-11-20T11:24:01;11.75;;;4.05;;
55718;SDS011;41623;46.104;19.656;2022-11-20T11:26:19;8.07;;;3.15;;
55718;SDS011;41623;46.104;19.656;2022-11-20T11:29:02;6.53;;;3.60;;
55718;SDS011;41623;46.104;19.656;2022-11-20T11:31:29;3.67;;;2.17;;
55718;SDS011;41623;46.104;19.656;2022-11-20T11:34:11;5.93;;;2.60;;
55718;SDS011;41623;46.104;19.656;2022-11-20T11:36:38;1.73;;;1.58;;
55718;SDS011;41623;46.104;19.656;2022-11-20T11:39:05;11.27;;;4.35;;
55718;SDS011;41623;46.104;19.656;2022-11-20T11:41:32;9.25;;;4.13;;
55718;SDS011;41623;46.104;19.656;2022-11-20T11:46:58;6.63;;;3.08;;
55718;SDS011;41623;46.104;19.656;2022-11-20T11:49:25;10.32;;;3.40;;
55718;SDS011;41623;46.104;19.656;2022-11-20T11:54:41;13.25;;;5.35;;
55718;SDS011;41623;46.104;19.656;2022-11-20T11:57:14;10.55;;;4.50;;
55718;SDS011;41623;46.104;19.656;2022-11-20T12:02:25;7.57;;;4.28;;
55718;SDS011;41623;46.104;19.656;2022-11-20T12:04:59;9.18;;;4.20;;
55718;SDS011;41623;46.104;19.656;2022-11-20T12:07:32;5.72;;;3.60;;
55718;SDS011;41623;46.104;19.656;2022-11-20T12:10:00;4.72;;;2.78;;
55718;SDS011;41623;46.104;19.656;2022-11-20T12:12:30;8.85;;;3.85;;
55718;SDS011;41623;46.104;19.656;2022-11-20T12:14:57;3.33;;;2.17;;
55718;SDS011;41623;46.104;19.656;2022-11-20T12:17:24;5.30;;;2.80;;
55718;SDS011;41623;46.104;19.656;2022-11-20T12:19:50;4.80;;;2.55;;
55718;SDS011;41623;46.104;19.656;2022-11-20T12:22:21;7.10;;;3.70;;
55718;SDS011;41623;46.104;19.656;2022-11-20T12:24:55;7.97;;;4.00;;
55718;SDS011;41623;46.104;19.656;2022-11-20T12:30:08;5.57;;;3.80;;
55718;SDS011;41623;46.104;19.656;2022-11-20T12:37:48;11.55;;;4.15;;
55718;SDS011;41623;46.104;19.656;2022-11-20T12:43:04;7.40;;;3.50;;
55718;SDS011;41623;46.104;19.656;2022-11-20T12:48:24;6.88;;;3.80;;
55718;SDS011;41623;46.104;19.656;2022-11-20T12:58:29;5.30;;;3.28;;
55718;SDS011;41623;46.104;19.656;2022-11-20T13:04:07;11.95;;;5.28;;
55718;SDS011;41623;46.104;19.656;2022-11-20T13:06:34;13.27;;;5.88;;
55718;SDS011;41623;46.104;19.656;2022-11-20T13:09:00;15.95;;;5.32;;
55718;SDS011;41623;46.104;19.656;2022-11-20T13:11:32;20.42;;;5.32;;
55718;SDS011;41623;46.104;19.656;2022-11-20T13:19:04;19.10;;;8.55;;
55718;SDS011;41623;46.104;19.656;2022-11-20T13:21:40;21.50;;;8.40;;
55718;SDS011;41623;46.104;19.656;2022-11-20T13:24:07;16.15;;;9.18;;
55718;SDS011;41623;46.104;19.656;2022-11-20T13:26:33;9.13;;;4.95;;
55718;SDS011;41623;46.104;19.656;2022-11-20T13:29:10;16.65;;;8.10;;
55718;SDS011;41623;46.104;19.656;2022-11-20T13:31:38;12.52;;;6.65;;
55718;SDS011;41623;46.104;19.656;2022-11-20T13:34:07;10.57;;;3.60;;
55718;SDS011;41623;46.104;19.656;2022-11-20T13:36:33;7.28;;;3.72;;
55718;SDS011;41623;46.104;19.656;2022-11-20T13:39:01;5.60;;;3.70;;
55718;SDS011;41623;46.104;19.656;2022-11-20T13:44:04;4.90;;;3.15;;
55718;SDS011;41623;46.104;19.656;2022-11-20T13:46:44;11.98;;;4.60;;
55718;SDS011;41623;46.104;19.656;2022-11-20T13:49:31;9.25;;;4.20;;
55718;SDS011;41623;46.104;19.656;2022-11-20T14:00:27;7.90;;;3.05;;
55718;SDS011;41623;46.104;19.656;2022-11-20T14:02:29;9.60;;;3.80;;
55718;SDS011;41623;46.104;19.656;2022-11-20T14:04:58;12.55;;;4.25;;
55718;SDS011;41623;46.104;19.656;2022-11-20T14:07:27;6.85;;;3.67;;
55718;SDS011;41623;46.104;19.656;2022-11-20T14:09:57;12.80;;;4.68;;
55718;SDS011;41623;46.104;19.656;2022-11-20T14:12:28;5.43;;;3.42;;
55718;SDS011;41623;46.104;19.656;2022-11-20T14:14:54;13.95;;;3.85;;
55718;SDS011;41623;46.104;19.656;2022-11-20T14:17:22;10.45;;;4.05;;
55718;SDS011;41623;46.104;19.656;2022-11-20T14:19:49;8.85;;;4.72;;
55718;SDS011;41623;46.104;19.656;2022-11-20T14:22:23;12.63;;;4.63;;
55718;SDS011;41623;46.104;19.656;2022-11-20T14:25:00;9.93;;;6.32;;
55718;SDS011;41623;46.104;19.656;2022-11-20T14:27:27;10.77;;;4.53;;
55718;SDS011;41623;46.104;19.656;2022-11-20T14:29:53;7.63;;;4.88;;
55718;SDS011;41623;46.104;19.656;2022-11-20T14:32:20;9.93;;;5.70;;
55718;SDS011;41623;46.104;19.656;2022-11-20T14:34:48;11.38;;;4.50;;
55718;SDS011;41623;46.104;19.656;2022-11-20T14:37:20;11.18;;;5.82;;
55718;SDS011;41623;46.104;19.656;2022-11-20T14:39:51;12.30;;;6.68;;
55718;SDS011;41623;46.104;19.656;2022-11-20T14:42:19;11.13;;;4.47;;
55718;SDS011;41623;46.104;19.656;2022-11-20T14:44:46;16.48;;;7.05;;
55718;SDS011;41623;46.104;19.656;2022-11-20T14:47:13;22.17;;;7.35;;
55718;SDS011;41623;46.104;19.656;2022-11-20T14:49:41;8.93;;;3.95;;
55718;SDS011;41623;46.104;19.656;2022-11-20T14:52:12;7.97;;;5.07;;
55718;SDS011;41623;46.104;19.656;2022-11-20T14:54:52;9.40;;;5.00;;
55718;SDS011;41623;46.104;19.656;2022-11-20T14:57:28;10.60;;;5.72;;
55718;SDS011;41623;46.104;19.656;2022-11-20T15:02:33;14.45;;;6.20;;
55718;SDS011;41623;46.104;19.656;2022-11-20T15:05:00;16.00;;;6.57;;
55718;SDS011;41623;46.104;19.656;2022-11-20T15:07:33;12.35;;;6.13;;
55718;SDS011;41623;46.104;19.656;2022-11-20T15:10:43;13.25;;;6.13;;
55718;SDS011;41623;46.104;19.656;2022-11-20T15:12:49;10.98;;;5.78;;
55718;SDS011;41623;46.104;19.656;2022-11-20T15:15:17;13.10;;;6.03;;
55718;SDS011;41623;46.104;19.656;2022-11-20T15:17:44;19.30;;;6.95;;
55718;SDS011;41623;46.104;19.656;2022-11-20T15:20:14;14.32;;;5.22;;
55718;SDS011;41623;46.104;19.656;2022-11-20T15:22:41;8.95;;;4.85;;
55718;SDS011;41623;46.104;19.656;2022-11-20T15:25:14;8.88;;;4.20;;
55718;SDS011;41623;46.104;19.656;2022-11-20T15:27:41;5.00;;;3.60;;
55718;SDS011;41623;46.104;19.656;2022-11-20T15:30:11;7.72;;;3.63;;
55718;SDS011;41623;46.104;19.656;2022-11-20T15:32:39;11.95;;;4.72;;
55718;SDS011;41623;46.104;19.656;2022-11-20T15:35:05;12.93;;;4.57;;
55718;SDS011;41623;46.104;19.656;2022-11-20T15:37:31;6.40;;;4.38;;
55718;SDS011;41623;46.104;19.656;2022-11-20T15:39:57;12.20;;;4.82;;
55718;SDS011;41623;46.104;19.656;2022-11-20T15:42:23;15.77;;;6.97;;
55718;SDS011;41623;46.104;19.656;2022-11-20T15:44:49;9.00;;;5.20;;
55718;SDS011;41623;46.104;19.656;2022-11-20T15:47:15;19.15;;;4.68;;
55718;SDS011;41623;46.104;19.656;2022-11-20T15:49:42;15.75;;;6.35;;
55718;SDS011;41623;46.104;19.656;2022-11-20T15:52:09;24.83;;;11.25;;
55718;SDS011;41623;46.104;19.656;2022-11-20T15:54:35;18.15;;;7.00;;
55718;SDS011;41623;46.104;19.656;2022-11-20T15:57:01;13.77;;;7.25;;
55718;SDS011;41623;46.104;19.656;2022-11-20T15:59:28;23.15;;;9.32;;
55718;SDS011;41623;46.104;19.656;2022-11-20T16:01:54;17.05;;;7.93;;
55718;SDS011;41623;46.104;19.656;2022-11-20T16:04:20;16.40;;;6.25;;
55718;SDS011;41623;46.104;19.656;2022-11-20T16:06:46;14.10;;;7.03;;